PWSweather.com
Personal Weather Stations
Station Observations
KMIEASTT1
Tawas Bay, East Tawas, MI 48730

Tawas BayEast Tawas, MI 48730

Lat: 44.28, Lon: -83.48

Elevation: 600

Station Type: Davis VantagePro

http://www.tawasbayweather.com

High Low Average
Temperature 53.2°F11.8°F 50.3°F10.2°F 51.8°F11.0°F
Dew Point 52.4°F11.3°F 49.5°F9.7°F 51.0°F10.6°F
Winds 4.0 mph NE6.4 mph NE Calm Calm 0.6 mph 1.0 mph
Wind Gusts 6.0 mph9.7 mph 1.0 mph1.6 mph 3.1 mph5.0 mph
Humidity 98% 93% 97%
Pressure 29.67 in1004.70 in 29.55 in1000.70 in -
Precipitation 1.46 in37.10 in - -
Hour Temp Dew Point Humidity Winds Wind Gusts Pressure Precip Precip Rate Daily Precip Total
12:00 AM 51.8°F11.0°C 49.8°F9.9°C 93% Calm Calm 2.0 mph3.2 kmh 29.64 in1003.7 mb 0.05 in1.3 mm 0.00 in0.0 mm 0.05 in1.3 mm
12:15 AM 51.4°F10.8°C 49.7°F9.8°C 94% Calm Calm 2.0 mph3.2 kmh 29.64 in1003.7 mb 0.07 in1.8 mm 0.08 in2.0 mm 0.07 in1.8 mm
12:30 AM 51.3°F10.7°C 49.9°F9.9°C 95% Calm Calm 3.0 mph4.8 kmh 29.63 in1003.4 mb 0.07 in1.8 mm 0.00 in0.0 mm 0.07 in1.8 mm
12:45 AM 51.2°F10.7°C 49.8°F9.9°C 95% 1.0 mph N1.6 kmh N 3.0 mph4.8 kmh 29.63 in1003.4 mb 0.07 in1.8 mm 0.00 in0.0 mm 0.07 in1.8 mm
01:00 AM 51.0°F10.6°C 49.9°F9.9°C 96% Calm Calm 2.0 mph3.2 kmh 29.63 in1003.4 mb 0.07 in1.8 mm 0.00 in0.0 mm 0.07 in1.8 mm
01:30 AM 50.6°F10.3°C 49.5°F9.7°C 96% Calm Calm 2.0 mph3.2 kmh 29.63 in1003.4 mb 0.04 in1.0 mm 0.00 in0.0 mm 0.07 in1.8 mm
01:45 AM 50.6°F10.3°C 49.5°F9.7°C 96% 3.0 mph NNW4.8 kmh NNW 4.0 mph6.4 kmh 29.62 in1003.0 mb 0.02 in0.5 mm 0.00 in0.0 mm 0.07 in1.8 mm
02:00 AM 50.6°F10.3°C 49.5°F9.7°C 96% 1.0 mph N1.6 kmh N 3.0 mph4.8 kmh 29.61 in1002.7 mb 0.02 in0.5 mm 0.00 in0.0 mm 0.07 in1.8 mm
02:15 AM 50.7°F10.4°C 49.9°F9.9°C 97% Calm Calm 5.0 mph8.0 kmh 29.61 in1002.7 mb 0.01 in0.3 mm 0.00 in0.0 mm 0.07 in1.8 mm
02:30 AM 50.7°F10.4°C 49.9°F9.9°C 97% 1.0 mph NNW1.6 kmh NNW 4.0 mph6.4 kmh 29.61 in1002.7 mb 0.01 in0.3 mm 0.00 in0.0 mm 0.07 in1.8 mm
02:45 AM 50.6°F10.3°C 49.8°F9.9°C 97% Calm Calm 4.0 mph6.4 kmh 29.60 in1002.4 mb 0.00 in0.0 mm 0.00 in0.0 mm 0.07 in1.8 mm
03:00 AM 50.5°F10.3°C 49.7°F9.8°C 97% 1.0 mph N1.6 kmh N 2.0 mph3.2 kmh 29.60 in1002.4 mb 0.00 in0.0 mm 0.00 in0.0 mm 0.07 in1.8 mm
03:15 AM 50.4°F10.2°C 49.6°F9.8°C 97% Calm Calm 2.0 mph3.2 kmh 29.60 in1002.4 mb 0.01 in0.3 mm 0.04 in1.0 mm 0.08 in2.0 mm
03:30 AM 50.3°F10.2°C 49.5°F9.7°C 97% Calm Calm 4.0 mph6.4 kmh 29.60 in1002.4 mb 0.01 in0.3 mm 0.00 in0.0 mm 0.08 in2.0 mm
03:45 AM 50.3°F10.2°C 49.5°F9.7°C 97% Calm Calm 4.0 mph6.4 kmh 29.59 in1002.0 mb 0.01 in0.3 mm 0.00 in0.0 mm 0.08 in2.0 mm
04:00 AM 50.5°F10.3°C 49.7°F9.8°C 97% 2.0 mph N3.2 kmh N 5.0 mph8.0 kmh 29.59 in1002.0 mb 0.02 in0.5 mm 0.01 in0.3 mm 0.09 in2.3 mm
04:15 AM 50.7°F10.4°C 49.9°F9.9°C 97% Calm Calm 4.0 mph6.4 kmh 29.59 in1002.0 mb 0.02 in0.5 mm 0.00 in0.0 mm 0.09 in2.3 mm
04:30 AM 51.0°F10.6°C 50.2°F10.1°C 97% Calm Calm 2.0 mph3.2 kmh 29.59 in1002.0 mb 0.02 in0.5 mm 0.00 in0.0 mm 0.09 in2.3 mm
04:45 AM 51.2°F10.7°C 50.4°F10.2°C 97% 2.0 mph N3.2 kmh N 4.0 mph6.4 kmh 29.58 in1001.7 mb 0.01 in0.3 mm 0.00 in0.0 mm 0.09 in2.3 mm
05:00 AM 51.3°F10.7°C 50.5°F10.3°C 97% Calm Calm 3.0 mph4.8 kmh 29.58 in1001.7 mb 0.01 in0.3 mm 0.00 in0.0 mm 0.09 in2.3 mm
05:15 AM 51.5°F10.8°C 50.7°F10.4°C 97% Calm Calm 2.0 mph3.2 kmh 29.58 in1001.7 mb 0.00 in0.0 mm 0.00 in0.0 mm 0.09 in2.3 mm
05:30 AM 51.7°F10.9°C 50.9°F10.5°C 97% 1.0 mph NE1.6 kmh NE 4.0 mph6.4 kmh 29.58 in1001.7 mb 0.00 in0.0 mm 0.00 in0.0 mm 0.09 in2.3 mm
05:45 AM 52.0°F11.1°C 51.2°F10.7°C 97% Calm Calm 5.0 mph8.0 kmh 29.59 in1002.0 mb 0.00 in0.0 mm 0.00 in0.0 mm 0.09 in2.3 mm
06:00 AM 51.9°F11.1°C 51.1°F10.6°C 97% 3.0 mph N4.8 kmh N 4.0 mph6.4 kmh 29.58 in1001.7 mb 0.00 in0.0 mm 0.00 in0.0 mm 0.09 in2.3 mm
06:15 AM 51.6°F10.9°C 50.8°F10.4°C 97% Calm Calm 3.0 mph4.8 kmh 29.58 in1001.7 mb 0.00 in0.0 mm 0.00 in0.0 mm 0.09 in2.3 mm
06:30 AM 51.5°F10.8°C 50.7°F10.4°C 97% 1.0 mph NE1.6 kmh NE 4.0 mph6.4 kmh 29.58 in1001.7 mb 0.00 in0.0 mm 0.00 in0.0 mm 0.09 in2.3 mm
06:45 AM 51.7°F10.9°C 50.9°F10.5°C 97% 3.0 mph NE4.8 kmh NE 6.0 mph9.7 kmh 29.57 in1001.4 mb 0.00 in0.0 mm 0.00 in0.0 mm 0.09 in2.3 mm
07:00 AM 51.9°F11.1°C 51.1°F10.6°C 97% 1.0 mph ENE1.6 kmh ENE 5.0 mph8.0 kmh 29.58 in1001.7 mb 0.00 in0.0 mm 0.00 in0.0 mm 0.09 in2.3 mm
07:15 AM 51.7°F10.9°C 50.9°F10.5°C 97% 1.0 mph NE1.6 kmh NE 4.0 mph6.4 kmh 29.58 in1001.7 mb 0.00 in0.0 mm 0.00 in0.0 mm 0.09 in2.3 mm
07:30 AM 51.7°F10.9°C 50.9°F10.5°C 97% 2.0 mph NE3.2 kmh NE 6.0 mph9.7 kmh 29.58 in1001.7 mb 0.00 in0.0 mm 0.00 in0.0 mm 0.09 in2.3 mm
07:45 AM 51.9°F11.1°C 51.1°F10.6°C 97% 4.0 mph NE6.4 kmh NE 5.0 mph8.0 kmh 29.59 in1002.0 mb 0.00 in0.0 mm 0.00 in0.0 mm 0.09 in2.3 mm
08:00 AM 51.9°F11.1°C 51.1°F10.6°C 97% 1.0 mph E1.6 kmh E 5.0 mph8.0 kmh 29.58 in1001.7 mb 0.00 in0.0 mm 0.00 in0.0 mm 0.09 in2.3 mm
08:15 AM 51.8°F11.0°C 50.7°F10.4°C 96% 3.0 mph N4.8 kmh N 5.0 mph8.0 kmh 29.58 in1001.7 mb 0.00 in0.0 mm 0.00 in0.0 mm 0.09 in2.3 mm
08:30 AM 51.6°F10.9°C 50.8°F10.4°C 97% 4.0 mph NE6.4 kmh NE 6.0 mph9.7 kmh 29.58 in1001.7 mb 0.00 in0.0 mm 0.00 in0.0 mm 0.09 in2.3 mm
08:45 AM 51.2°F10.7°C 50.4°F10.2°C 97% Calm Calm 2.0 mph3.2 kmh 29.59 in1002.0 mb 0.08 in2.0 mm 0.32 in8.1 mm 0.17 in4.3 mm
09:00 AM 51.0°F10.6°C 50.2°F10.1°C 97% 1.0 mph N1.6 kmh N 3.0 mph4.8 kmh 29.58 in1001.7 mb 0.08 in2.0 mm 0.00 in0.0 mm 0.17 in4.3 mm
09:15 AM 51.1°F10.6°C 50.3°F10.2°C 97% Calm Calm 2.0 mph3.2 kmh 29.58 in1001.7 mb 0.08 in2.0 mm 0.00 in0.0 mm 0.17 in4.3 mm
09:30 AM 51.3°F10.7°C 50.5°F10.3°C 97% Calm Calm 4.0 mph6.4 kmh 29.58 in1001.7 mb 0.08 in2.0 mm 0.00 in0.0 mm 0.17 in4.3 mm
09:45 AM 51.5°F10.8°C 50.7°F10.4°C 97% Calm Calm 3.0 mph4.8 kmh 29.58 in1001.7 mb 0.08 in2.0 mm 0.00 in0.0 mm 0.17 in4.3 mm
10:00 AM 51.8°F11.0°C 51.0°F10.6°C 97% Calm Calm 3.0 mph4.8 kmh 29.57 in1001.4 mb 0.08 in2.0 mm 0.00 in0.0 mm 0.17 in4.3 mm
10:15 AM 52.0°F11.1°C 51.2°F10.7°C 97% Calm Calm 3.0 mph4.8 kmh 29.57 in1001.4 mb 0.00 in0.0 mm 0.00 in0.0 mm 0.17 in4.3 mm
10:30 AM 52.3°F11.3°C 51.5°F10.8°C 97% 2.0 mph NE3.2 kmh NE 5.0 mph8.0 kmh 29.57 in1001.4 mb 0.00 in0.0 mm 0.00 in0.0 mm 0.17 in4.3 mm
10:45 AM 51.9°F11.1°C 51.1°F10.6°C 97% Calm Calm 4.0 mph6.4 kmh 29.57 in1001.4 mb 0.00 in0.0 mm 0.00 in0.0 mm 0.17 in4.3 mm
11:00 AM 51.9°F11.1°C 51.1°F10.6°C 97% Calm Calm 3.0 mph4.8 kmh 29.57 in1001.4 mb 0.00 in0.0 mm 0.00 in0.0 mm 0.17 in4.3 mm
11:15 AM 52.0°F11.1°C 51.2°F10.7°C 97% Calm Calm 3.0 mph4.8 kmh 29.57 in1001.4 mb 0.00 in0.0 mm 0.00 in0.0 mm 0.17 in4.3 mm
11:30 AM 51.8°F11.0°C 51.0°F10.6°C 97% 1.0 mph NNE1.6 kmh NNE 4.0 mph6.4 kmh 29.56 in1001.0 mb 0.00 in0.0 mm 0.00 in0.0 mm 0.17 in4.3 mm
11:45 AM 51.9°F11.1°C 51.1°F10.6°C 97% Calm Calm 3.0 mph4.8 kmh 29.55 in1000.7 mb 0.00 in0.0 mm 0.00 in0.0 mm 0.17 in4.3 mm
12:00 PM 51.9°F11.1°C 51.1°F10.6°C 97% Calm Calm 3.0 mph4.8 kmh 29.56 in1001.0 mb 0.00 in0.0 mm 0.00 in0.0 mm 0.17 in4.3 mm
12:15 PM 51.9°F11.1°C 51.1°F10.6°C 97% Calm Calm 3.0 mph4.8 kmh 29.56 in1001.0 mb 0.00 in0.0 mm 0.00 in0.0 mm 0.17 in4.3 mm
12:30 PM 51.9°F11.1°C 51.1°F10.6°C 97% Calm Calm 3.0 mph4.8 kmh 29.56 in1001.0 mb 0.00 in0.0 mm 0.00 in0.0 mm 0.17 in4.3 mm
12:45 PM 52.1°F11.2°C 51.3°F10.7°C 97% Calm Calm 3.0 mph4.8 kmh 29.56 in1001.0 mb 0.00 in0.0 mm 0.00 in0.0 mm 0.17 in4.3 mm
01:00 PM 52.2°F11.2°C 51.4°F10.8°C 97% Calm Calm 2.0 mph3.2 kmh 29.57 in1001.4 mb 0.00 in0.0 mm 0.00 in0.0 mm 0.17 in4.3 mm
01:15 PM 52.4°F11.3°C 51.6°F10.9°C 97% Calm Calm 2.0 mph3.2 kmh 29.57 in1001.4 mb 0.00 in0.0 mm 0.00 in0.0 mm 0.17 in4.3 mm
01:30 PM 52.3°F11.3°C 51.5°F10.8°C 97% Calm Calm 3.0 mph4.8 kmh 29.57 in1001.4 mb 0.00 in0.0 mm 0.00 in0.0 mm 0.17 in4.3 mm
01:45 PM 52.4°F11.3°C 51.6°F10.9°C 97% Calm Calm 3.0 mph4.8 kmh 29.57 in1001.4 mb 0.00 in0.0 mm 0.00 in0.0 mm 0.17 in4.3 mm
02:00 PM 52.6°F11.4°C 51.8°F11.0°C 97% Calm Calm 3.0 mph4.8 kmh 29.57 in1001.4 mb 0.00 in0.0 mm 0.00 in0.0 mm 0.17 in4.3 mm
02:15 PM 52.6°F11.4°C 51.8°F11.0°C 97% Calm Calm 3.0 mph4.8 kmh 29.57 in1001.4 mb 0.00 in0.0 mm 0.00 in0.0 mm 0.17 in4.3 mm
02:30 PM 52.8°F11.6°C 52.3°F11.3°C 98% 1.0 mph NNE1.6 kmh NNE 2.0 mph3.2 kmh 29.57 in1001.4 mb 0.01 in0.3 mm 0.04 in1.0 mm 0.18 in4.6 mm
02:45 PM 52.9°F11.6°C 52.1°F11.2°C 97% Calm Calm 3.0 mph4.8 kmh 29.56 in1001.0 mb 0.01 in0.3 mm 0.00 in0.0 mm 0.18 in4.6 mm
03:00 PM 52.9°F11.6°C 52.1°F11.2°C 97% 3.0 mph NNW4.8 kmh NNW 3.0 mph4.8 kmh 29.56 in1001.0 mb 0.01 in0.3 mm 0.00 in0.0 mm 0.18 in4.6 mm
03:15 PM 53.1°F11.7°C 52.3°F11.3°C 97% Calm Calm 3.0 mph4.8 kmh 29.56 in1001.0 mb 0.01 in0.3 mm 0.00 in0.0 mm 0.18 in4.6 mm
03:30 PM 53.0°F11.7°C 52.2°F11.2°C 97% Calm Calm 3.0 mph4.8 kmh 29.56 in1001.0 mb 0.01 in0.3 mm 0.00 in0.0 mm 0.18 in4.6 mm
03:45 PM 52.9°F11.6°C 52.1°F11.2°C 97% Calm Calm 3.0 mph4.8 kmh 29.57 in1001.4 mb 0.00 in0.0 mm 0.00 in0.0 mm 0.18 in4.6 mm
04:00 PM 53.0°F11.7°C 52.2°F11.2°C 97% Calm Calm 4.0 mph6.4 kmh 29.57 in1001.4 mb 0.00 in0.0 mm 0.00 in0.0 mm 0.18 in4.6 mm
04:15 PM 52.8°F11.6°C 52.0°F11.1°C 97% 2.0 mph NE3.2 kmh NE 4.0 mph6.4 kmh 29.57 in1001.4 mb 0.01 in0.3 mm 0.04 in1.0 mm 0.19 in4.8 mm
04:30 PM 52.6°F11.4°C 51.8°F11.0°C 97% Calm Calm 2.0 mph3.2 kmh 29.57 in1001.4 mb 0.01 in0.3 mm 0.00 in0.0 mm 0.19 in4.8 mm
04:45 PM 52.9°F11.6°C 52.1°F11.2°C 97% Calm Calm 3.0 mph4.8 kmh 29.57 in1001.4 mb 0.01 in0.3 mm 0.00 in0.0 mm 0.19 in4.8 mm
05:00 PM 52.9°F11.6°C 52.1°F11.2°C 97% 3.0 mph N4.8 kmh N 3.0 mph4.8 kmh 29.57 in1001.4 mb 0.01 in0.3 mm 0.00 in0.0 mm 0.19 in4.8 mm
05:15 PM 53.1°F11.7°C 52.3°F11.3°C 97% 2.0 mph N3.2 kmh N 2.0 mph3.2 kmh 29.57 in1001.4 mb 0.02 in0.5 mm 0.04 in1.0 mm 0.20 in5.1 mm
05:30 PM 53.2°F11.8°C 52.4°F11.3°C 97% Calm Calm 2.0 mph3.2 kmh 29.57 in1001.4 mb 0.03 in0.8 mm 0.04 in1.0 mm 0.21 in5.3 mm
05:45 PM 52.9°F11.6°C 52.1°F11.2°C 97% Calm Calm 2.0 mph3.2 kmh 29.58 in1001.7 mb 0.02 in0.5 mm 0.00 in0.0 mm 0.21 in5.3 mm
06:00 PM 52.7°F11.5°C 51.9°F11.1°C 97% 3.0 mph ENE4.8 kmh ENE 3.0 mph4.8 kmh 29.58 in1001.7 mb 0.02 in0.5 mm 0.00 in0.0 mm 0.21 in5.3 mm
06:15 PM 52.4°F11.3°C 51.6°F10.9°C 97% Calm Calm 2.0 mph3.2 kmh 29.58 in1001.7 mb 0.02 in0.5 mm 0.00 in0.0 mm 0.21 in5.3 mm
06:30 PM 52.4°F11.3°C 51.6°F10.9°C 97% Calm Calm 3.0 mph4.8 kmh 29.58 in1001.7 mb 0.03 in0.8 mm 0.04 in1.0 mm 0.22 in5.6 mm
06:45 PM 52.3°F11.3°C 51.5°F10.8°C 97% 1.0 mph NE1.6 kmh NE 1.0 mph1.6 kmh 29.58 in1001.7 mb 0.02 in0.5 mm 0.00 in0.0 mm 0.22 in5.6 mm
07:00 PM 52.1°F11.2°C 51.3°F10.7°C 97% Calm Calm 2.0 mph3.2 kmh 29.59 in1002.0 mb 0.02 in0.5 mm 0.00 in0.0 mm 0.22 in5.6 mm
07:15 PM 52.0°F11.1°C 51.2°F10.7°C 97% Calm Calm 3.0 mph4.8 kmh 29.59 in1002.0 mb 0.02 in0.5 mm 0.00 in0.0 mm 0.22 in5.6 mm
07:30 PM 51.7°F10.9°C 50.9°F10.5°C 97% Calm Calm 2.0 mph3.2 kmh 29.60 in1002.4 mb 0.03 in0.8 mm 0.04 in1.0 mm 0.23 in5.8 mm
07:45 PM 51.5°F10.8°C 50.7°F10.4°C 97% Calm Calm 2.0 mph3.2 kmh 29.60 in1002.4 mb 0.02 in0.5 mm 0.00 in0.0 mm 0.23 in5.8 mm
08:00 PM 51.3°F10.7°C 50.5°F10.3°C 97% 1.0 mph NNE1.6 kmh NNE 2.0 mph3.2 kmh 29.61 in1002.7 mb 0.02 in0.5 mm 0.00 in0.0 mm 0.23 in5.8 mm
08:15 PM 51.0°F10.6°C 50.2°F10.1°C 97% Calm Calm 2.0 mph3.2 kmh 29.61 in1002.7 mb 0.02 in0.5 mm 0.00 in0.0 mm 0.23 in5.8 mm
08:30 PM 51.0°F10.6°C 50.5°F10.3°C 98% Calm Calm 2.0 mph3.2 kmh 29.62 in1003.0 mb 0.02 in0.5 mm 0.00 in0.0 mm 0.23 in5.8 mm
08:45 PM 51.0°F10.6°C 50.2°F10.1°C 97% Calm Calm 2.0 mph3.2 kmh 29.62 in1003.0 mb 0.01 in0.3 mm 0.00 in0.0 mm 0.23 in5.8 mm
09:00 PM 51.0°F10.6°C 50.5°F10.3°C 98% Calm Calm 3.0 mph4.8 kmh 29.63 in1003.4 mb 0.01 in0.3 mm 0.00 in0.0 mm 0.23 in5.8 mm
09:15 PM 51.1°F10.6°C 50.6°F10.3°C 98% 2.0 mph N3.2 kmh N 3.0 mph4.8 kmh 29.63 in1003.4 mb 0.01 in0.3 mm 0.00 in0.0 mm 0.23 in5.8 mm
09:30 PM 51.2°F10.7°C 50.7°F10.4°C 98% Calm Calm 2.0 mph3.2 kmh 29.64 in1003.7 mb 0.01 in0.3 mm 0.00 in0.0 mm 0.23 in5.8 mm
09:45 PM 51.4°F10.8°C 50.9°F10.5°C 98% Calm Calm 2.0 mph3.2 kmh 29.65 in1004.1 mb 0.00 in0.0 mm 0.00 in0.0 mm 0.23 in5.8 mm
10:00 PM 51.5°F10.8°C 51.0°F10.6°C 98% Calm Calm 2.0 mph3.2 kmh 29.65 in1004.1 mb 0.00 in0.0 mm 0.00 in0.0 mm 0.23 in5.8 mm
10:15 PM 51.8°F11.0°C 51.3°F10.7°C 98% Calm Calm 1.0 mph1.6 kmh 29.65 in1004.1 mb 0.00 in0.0 mm 0.00 in0.0 mm 0.23 in5.8 mm
10:30 PM 52.0°F11.1°C 51.5°F10.8°C 98% Calm Calm 3.0 mph4.8 kmh 29.65 in1004.1 mb 0.00 in0.0 mm 0.00 in0.0 mm 0.23 in5.8 mm
10:45 PM 52.2°F11.2°C 51.7°F10.9°C 98% Calm Calm 3.0 mph4.8 kmh 29.66 in1004.4 mb 0.00 in0.0 mm 0.00 in0.0 mm 0.23 in5.8 mm
11:00 PM 52.4°F11.3°C 51.9°F11.1°C 98% Calm Calm 1.0 mph1.6 kmh 29.66 in1004.4 mb 0.00 in0.0 mm 0.00 in0.0 mm 0.23 in5.8 mm
11:15 PM 52.5°F11.4°C 52.0°F11.1°C 98% Calm Calm 3.0 mph4.8 kmh 29.66 in1004.4 mb 0.00 in0.0 mm 0.00 in0.0 mm 0.23 in5.8 mm
11:30 PM 52.6°F11.4°C 52.1°F11.2°C 98% Calm Calm 3.0 mph4.8 kmh 29.67 in1004.7 mb 0.00 in0.0 mm 0.00 in0.0 mm 0.23 in5.8 mm
11:45 PM 52.8°F11.6°C 52.3°F11.3°C 98% 1.0 mph NNW1.6 kmh NNW 2.0 mph3.2 kmh 29.67 in1004.7 mb 0.00 in0.0 mm 0.00 in0.0 mm 0.23 in5.8 mm